createdAt,value
2023-03-14T00:00:50.282Z,12.70
2023-03-14T00:03:17.070Z,8.60
2023-03-14T00:05:43.724Z,8.47
2023-03-14T00:08:10.953Z,8.07
2023-03-14T00:10:37.928Z,9.23
2023-03-14T00:13:04.617Z,7.17
2023-03-14T00:15:31.403Z,8.40
2023-03-14T00:17:58.073Z,11.00
2023-03-14T00:20:25.295Z,8.80
2023-03-14T00:22:52.449Z,8.47
2023-03-14T00:25:19.085Z,7.83
2023-03-14T00:27:45.718Z,8.93
2023-03-14T00:30:13.831Z,7.67
2023-03-14T00:32:40.544Z,10.10
2023-03-14T00:35:09.073Z,6.83
2023-03-14T00:37:35.830Z,11.10
2023-03-14T00:40:02.464Z,10.20
2023-03-14T00:42:29.079Z,7.53
2023-03-14T00:44:58.307Z,5.03
2023-03-14T00:47:25.006Z,7.03
2023-03-14T00:49:52.743Z,8.20
2023-03-14T00:52:19.463Z,9.37
2023-03-14T00:54:46.040Z,8.40
2023-03-14T00:57:12.641Z,9.47
2023-03-14T00:59:39.334Z,8.17
2023-03-14T01:02:06.157Z,8.43
2023-03-14T01:04:32.945Z,9.67
2023-03-14T01:06:59.781Z,8.70
2023-03-14T01:09:26.468Z,10.27
2023-03-14T01:11:53.412Z,7.80
2023-03-14T01:14:20.071Z,10.57
2023-03-14T01:16:46.665Z,13.50
2023-03-14T01:19:13.278Z,6.03
2023-03-14T01:24:24.249Z,7.00
2023-03-14T01:26:50.999Z,6.87
2023-03-14T01:29:17.689Z,10.03
2023-03-14T01:31:44.431Z,9.03
2023-03-14T01:34:11.540Z,9.97
2023-03-14T01:36:38.185Z,8.83
2023-03-14T01:39:07.106Z,7.50
2023-03-14T01:41:33.935Z,9.30
2023-03-14T02:15:46.967Z,10.73
2023-03-14T02:18:32.425Z,9.27
2023-03-14T02:21:18.884Z,9.13
2023-03-14T02:23:52.503Z,5.73
2023-03-14T02:26:33.306Z,7.47
2023-03-14T02:28:59.970Z,6.07
2023-03-14T02:31:26.610Z,9.03
2023-03-14T02:33:53.847Z,7.30
2023-03-14T02:36:20.473Z,7.23
2023-03-14T02:38:55.105Z,7.93
2023-03-14T02:41:25.343Z,5.43
2023-03-14T02:44:00.112Z,8.37
2023-03-14T02:46:27.208Z,9.47
2023-03-14T02:48:53.876Z,4.57
2023-03-14T02:51:20.689Z,8.17
2023-03-14T02:53:48.912Z,7.50
2023-03-14T02:56:15.940Z,7.83
2023-03-14T02:58:42.749Z,7.00
2023-03-14T03:01:26.435Z,9.53
2023-03-14T03:03:53.185Z,7.37
2023-03-14T03:06:20.080Z,8.37
2023-03-14T03:08:47.196Z,9.33
2023-03-14T03:11:13.825Z,6.20
2023-03-14T03:13:40.938Z,6.07
2023-03-14T03:16:08.673Z,6.17
2023-03-14T03:18:35.485Z,8.90
2023-03-14T03:21:02.635Z,7.40
2023-03-14T03:23:29.291Z,7.50
2023-03-14T03:25:55.871Z,7.40
2023-03-14T03:28:22.582Z,7.03
2023-03-14T03:30:50.408Z,6.90
2023-03-14T03:33:17.208Z,6.83
2023-03-14T03:35:45.764Z,7.53
2023-03-14T03:38:14.148Z,6.03
2023-03-14T03:40:41.240Z,8.27
2023-03-14T03:43:09.290Z,8.63
2023-03-14T03:45:38.975Z,8.60
2023-03-14T03:48:06.780Z,7.87
2023-03-14T03:50:33.433Z,5.77
2023-03-14T03:53:00.327Z,6.33
2023-03-14T03:55:29.118Z,6.10
2023-03-14T03:57:55.936Z,7.03
2023-03-14T04:00:22.687Z,7.93
2023-03-14T04:02:49.428Z,7.17
2023-03-14T04:05:17.934Z,7.77
2023-03-14T04:07:59.513Z,6.50
2023-03-14T04:10:28.664Z,6.53
2023-03-14T04:13:15.428Z,6.47
2023-03-14T04:15:45.481Z,6.83
2023-03-14T04:18:18.476Z,6.17
2023-03-14T04:20:45.175Z,7.63
2023-03-14T04:23:12.579Z,6.40
2023-03-14T04:25:39.594Z,6.47
2023-03-14T04:28:06.272Z,6.03
2023-03-14T04:30:33.828Z,6.10
2023-03-14T04:33:09.240Z,5.93
2023-03-14T04:35:40.804Z,6.57
2023-03-14T04:38:09.930Z,6.00
2023-03-14T04:40:40.348Z,6.17
2023-03-14T04:43:08.379Z,4.83
2023-03-14T04:45:35.574Z,7.57
2023-03-14T04:48:05.660Z,5.77
2023-03-14T04:50:32.779Z,5.33
2023-03-14T04:52:59.784Z,5.37
2023-03-14T04:55:26.623Z,7.37
2023-03-14T04:57:55.526Z,8.10
2023-03-14T05:00:23.131Z,6.83
2023-03-14T05:03:03.143Z,5.20
2023-03-14T05:05:48.368Z,5.10
2023-03-14T05:08:53.394Z,4.80
2023-03-14T05:11:40.228Z,5.93
2023-03-14T05:14:26.926Z,6.87
2023-03-14T05:17:19.677Z,10.13
2023-03-14T05:20:13.897Z,6.27
2023-03-14T05:23:00.721Z,10.20
2023-03-14T05:25:46.580Z,6.67
2023-03-14T05:28:32.870Z,4.97
2023-03-14T05:31:11.559Z,6.43
2023-03-14T05:34:08.251Z,6.33
2023-03-14T05:36:41.769Z,3.37
2023-03-14T05:39:36.351Z,4.27
2023-03-14T05:42:28.973Z,4.97
2023-03-14T05:45:11.047Z,7.73
2023-03-14T05:50:48.221Z,5.80
2023-03-14T05:53:41.205Z,4.73
2023-03-14T05:56:30.975Z,5.73
2023-03-14T05:59:17.889Z,4.83
2023-03-14T06:01:57.079Z,7.77
2023-03-14T06:04:27.325Z,7.57
2023-03-14T06:06:58.428Z,8.77
2023-03-14T06:09:25.676Z,5.60
2023-03-14T06:11:55.642Z,6.03
2023-03-14T06:14:22.343Z,7.20
2023-03-14T06:16:51.704Z,8.43
2023-03-14T06:19:20.048Z,6.37
2023-03-14T06:21:46.809Z,4.53
2023-03-14T06:24:13.842Z,6.57
2023-03-14T06:26:45.273Z,5.87
2023-03-14T06:29:11.989Z,6.53
2023-03-14T06:31:38.921Z,4.87
2023-03-14T06:34:08.027Z,5.13
2023-03-14T06:36:35.190Z,5.00
2023-03-14T06:39:02.854Z,4.40
2023-03-14T06:41:31.590Z,4.37
2023-03-14T06:43:59.301Z,4.23
2023-03-14T06:46:26.845Z,4.43
2023-03-14T06:48:54.728Z,3.37
2023-03-14T06:51:21.394Z,4.23
2023-03-14T06:53:49.220Z,5.50
2023-03-14T06:56:17.579Z,4.27
2023-03-14T06:58:48.270Z,4.10
2023-03-14T07:01:26.745Z,3.23
2023-03-14T07:03:55.446Z,3.27
2023-03-14T07:06:23.183Z,4.53
2023-03-14T07:08:50.373Z,6.20
2023-03-14T07:11:20.155Z,4.47
2023-03-14T07:13:47.202Z,6.30
2023-03-14T07:16:14.931Z,7.13
2023-03-14T07:18:41.718Z,4.87
2023-03-14T07:21:10.148Z,5.30
2023-03-14T07:23:38.023Z,5.57
2023-03-14T07:26:04.663Z,5.93
2023-03-14T07:28:33.036Z,7.07
2023-03-14T07:31:05.733Z,4.80
2023-03-14T07:33:33.090Z,5.60
2023-03-14T07:36:00.591Z,4.83
2023-03-14T07:38:27.597Z,4.00
2023-03-14T07:41:12.202Z,5.23
2023-03-14T07:44:08.803Z,3.07
2023-03-14T07:46:35.596Z,3.53
2023-03-14T07:49:02.240Z,3.00
2023-03-14T07:51:30.425Z,5.10
2023-03-14T07:53:57.054Z,4.87
2023-03-14T07:56:23.894Z,4.67
2023-03-14T07:58:50.514Z,3.87
2023-03-14T08:01:17.376Z,4.20
2023-03-14T08:03:44.001Z,4.57
2023-03-14T08:06:11.324Z,4.07
2023-03-14T08:08:38.018Z,4.00
2023-03-14T08:11:05.710Z,5.03
2023-03-14T08:13:35.436Z,5.87
2023-03-14T08:16:02.282Z,5.97
2023-03-14T08:18:29.005Z,4.90
2023-03-14T08:20:55.737Z,6.03
2023-03-14T08:23:22.367Z,3.70
2023-03-14T08:25:52.285Z,4.47
2023-03-14T08:28:19.321Z,5.57
2023-03-14T08:30:47.841Z,5.10
2023-03-14T08:33:15.083Z,4.90
2023-03-14T08:35:41.971Z,6.50
2023-03-14T08:38:08.765Z,4.70
2023-03-14T08:40:35.496Z,5.47
2023-03-14T08:43:02.431Z,4.83
2023-03-14T08:45:29.183Z,4.40
2023-03-14T08:47:55.992Z,4.60
2023-03-14T08:50:24.412Z,4.00
2023-03-14T08:52:51.392Z,6.33
2023-03-14T08:55:18.151Z,5.77
2023-03-14T08:57:45.010Z,7.77
2023-03-14T09:00:15.238Z,6.77
2023-03-14T09:02:45.216Z,7.97
2023-03-14T09:05:12.373Z,5.23
2023-03-14T09:07:39.541Z,4.93
2023-03-14T09:10:06.726Z,5.03
2023-03-14T09:12:33.533Z,4.60
2023-03-14T09:15:00.188Z,6.70
2023-03-14T09:17:27.116Z,5.40
2023-03-14T09:19:54.031Z,6.37
2023-03-14T09:22:21.601Z,6.07
2023-03-14T09:24:48.432Z,5.07
2023-03-14T09:27:15.067Z,6.47
2023-03-14T09:29:41.787Z,7.10
2023-03-14T09:32:08.532Z,5.43
2023-03-14T09:34:41.179Z,6.63
2023-03-14T09:37:08.001Z,6.07
2023-03-14T09:39:34.702Z,5.83
2023-03-14T09:42:02.792Z,6.27
2023-03-14T09:44:33.064Z,4.87
2023-03-14T09:47:03.218Z,4.70
2023-03-14T09:49:37.943Z,5.93
2023-03-14T09:52:23.932Z,6.23
2023-03-14T09:54:50.696Z,2.97
2023-03-14T09:57:19.094Z,4.90
2023-03-14T09:59:46.233Z,6.00
2023-03-14T10:02:16.987Z,5.80
2023-03-14T10:04:45.587Z,6.83
2023-03-14T10:07:32.536Z,4.70
2023-03-14T10:09:59.527Z,4.57
2023-03-14T10:12:36.322Z,7.07
2023-03-14T10:15:07.706Z,6.43
2023-03-14T10:17:44.800Z,7.57
2023-03-14T10:20:33.692Z,8.33
2023-03-14T10:23:01.569Z,4.00
2023-03-14T10:25:32.129Z,6.40
2023-03-14T10:27:59.145Z,6.73
2023-03-14T10:30:45.540Z,4.80
2023-03-14T10:33:13.670Z,7.30
2023-03-14T10:35:40.295Z,5.50
2023-03-14T10:38:12.225Z,5.03
2023-03-14T10:40:39.743Z,5.03
2023-03-14T10:43:06.985Z,4.37
2023-03-14T10:45:33.798Z,6.27
2023-03-14T10:48:06.432Z,7.37
2023-03-14T10:50:35.709Z,8.50
2023-03-14T10:53:06.535Z,8.57
2023-03-14T10:55:43.154Z,7.40
2023-03-14T10:58:26.550Z,6.57
2023-03-14T11:01:05.847Z,7.87
2023-03-14T11:03:33.425Z,8.33
2023-03-14T11:06:03.165Z,4.90
2023-03-14T11:08:38.713Z,6.53
2023-03-14T11:11:14.577Z,6.63
2023-03-14T11:13:45.888Z,5.73
2023-03-14T11:16:21.955Z,5.30
2023-03-14T11:18:58.282Z,3.90
2023-03-14T11:21:31.261Z,4.50
2023-03-14T11:24:15.970Z,6.93
2023-03-14T11:26:43.057Z,6.23
2023-03-14T11:29:09.612Z,4.73
2023-03-14T11:31:36.735Z,2.87
2023-03-14T11:34:09.840Z,5.70
2023-03-14T11:36:36.749Z,4.03
2023-03-14T11:39:04.374Z,4.83
2023-03-14T11:41:35.063Z,3.20
2023-03-14T11:44:02.670Z,6.70
2023-03-14T11:46:31.030Z,4.60
2023-03-14T11:49:16.501Z,3.67
2023-03-14T11:51:44.179Z,3.87
2023-03-14T11:54:21.870Z,4.43
2023-03-14T11:56:54.128Z,3.77
2023-03-14T11:59:47.664Z,3.40
2023-03-14T12:02:26.980Z,5.57
2023-03-14T12:05:02.614Z,6.83
2023-03-14T12:07:55.573Z,4.03
2023-03-14T12:10:22.600Z,6.53
2023-03-14T12:12:49.360Z,6.00
2023-03-14T12:15:20.127Z,4.07
2023-03-14T12:17:47.519Z,4.67
2023-03-14T12:20:25.260Z,4.70
2023-03-14T12:22:53.229Z,3.90
2023-03-14T12:25:23.355Z,5.00
2023-03-14T12:27:50.122Z,2.20
2023-03-14T12:30:18.827Z,3.90
2023-03-14T12:32:54.586Z,2.20
2023-03-14T12:35:40.598Z,3.37
2023-03-14T12:38:31.819Z,5.50
2023-03-14T12:41:04.665Z,2.87
2023-03-14T12:43:31.964Z,4.40
2023-03-14T12:46:07.689Z,3.33
2023-03-14T12:48:34.497Z,3.77
2023-03-14T12:51:05.001Z,3.13
2023-03-14T12:53:37.576Z,3.37
2023-03-14T12:56:10.363Z,5.37
2023-03-14T12:58:44.258Z,2.83
2023-03-14T13:01:16.796Z,6.23
2023-03-14T13:03:45.246Z,4.20
2023-03-14T13:06:12.659Z,4.60
2023-03-14T13:08:42.027Z,4.87
2023-03-14T13:11:26.873Z,3.63
2023-03-14T13:13:58.335Z,2.30
2023-03-14T13:16:25.259Z,3.17
2023-03-14T13:18:52.726Z,4.93
2023-03-14T13:21:20.819Z,3.40
2023-03-14T13:23:59.590Z,3.27
2023-03-14T13:26:39.267Z,3.70
2023-03-14T13:29:22.408Z,2.77
2023-03-14T13:31:49.933Z,2.80
2023-03-14T13:34:16.670Z,4.03
2023-03-14T13:36:43.383Z,5.60
2023-03-14T13:39:20.652Z,4.30
2023-03-14T13:41:47.926Z,2.57
2023-03-14T13:44:15.710Z,4.33
2023-03-14T13:46:42.459Z,4.57
2023-03-14T13:49:13.509Z,3.43
2023-03-14T13:51:40.514Z,3.53
2023-03-14T13:54:16.959Z,4.80
2023-03-14T13:56:45.024Z,4.20
2023-03-14T13:59:27.498Z,3.37
2023-03-14T14:01:54.607Z,3.50
2023-03-14T14:04:26.314Z,4.50
2023-03-14T14:06:55.846Z,4.20
2023-03-14T14:09:24.448Z,2.03
2023-03-14T14:12:14.981Z,4.53
2023-03-14T14:14:51.340Z,3.83
2023-03-14T14:17:22.510Z,4.53
2023-03-14T14:19:49.209Z,4.23
2023-03-14T14:22:15.884Z,5.33
2023-03-14T14:24:42.610Z,3.37
2023-03-14T14:27:09.217Z,4.13
2023-03-14T14:29:35.897Z,4.07
2023-03-14T14:32:22.801Z,3.40
2023-03-14T14:34:55.553Z,4.63
2023-03-14T14:37:25.127Z,1.57
2023-03-14T14:39:53.885Z,3.17
2023-03-14T14:42:23.172Z,4.53
2023-03-14T14:44:52.369Z,4.23
2023-03-14T14:47:19.844Z,3.60
2023-03-14T14:49:47.252Z,6.10
2023-03-14T14:52:14.798Z,2.60
2023-03-14T14:54:47.772Z,3.53
2023-03-14T14:57:18.460Z,3.57
2023-03-14T14:59:45.713Z,4.80
2023-03-14T15:02:26.376Z,4.97
2023-03-14T15:04:53.010Z,5.93
2023-03-14T15:07:19.776Z,3.33
2023-03-14T15:12:30.765Z,5.13
2023-03-14T15:17:43.243Z,4.60
2023-03-14T15:20:14.327Z,5.00
2023-03-14T15:22:41.439Z,7.10
2023-03-14T15:25:12.987Z,4.83
2023-03-14T15:27:45.756Z,5.60
2023-03-14T15:30:15.902Z,6.80
2023-03-14T15:32:42.742Z,4.77
2023-03-14T15:35:09.538Z,4.33
2023-03-14T15:37:36.709Z,7.83
2023-03-14T15:40:11.432Z,6.70
2023-03-14T15:42:38.554Z,8.10
2023-03-14T15:45:06.117Z,5.43
2023-03-14T15:47:33.378Z,7.07
2023-03-14T15:50:00.159Z,4.80
2023-03-14T15:52:27.037Z,6.23
2023-03-14T15:54:53.648Z,3.70
2023-03-14T15:57:20.378Z,5.13
2023-03-14T15:59:47.136Z,3.13
2023-03-14T16:02:13.953Z,4.30
2023-03-14T16:04:40.673Z,4.33
2023-03-14T16:07:07.972Z,2.43
2023-03-14T16:09:34.609Z,4.60
2023-03-14T16:12:01.385Z,2.97
2023-03-14T16:14:28.007Z,4.57
2023-03-14T16:16:55.984Z,2.60
2023-03-14T16:19:22.781Z,4.23
2023-03-14T16:21:52.083Z,3.40
2023-03-14T16:24:19.379Z,4.67
2023-03-14T16:26:46.435Z,5.97
2023-03-14T16:29:13.123Z,6.30
2023-03-14T16:31:43.204Z,5.53
2023-03-14T16:36:56.167Z,6.00
2023-03-14T16:42:07.176Z,5.57
2023-03-14T16:47:17.985Z,5.83
2023-03-14T16:49:44.783Z,6.47
2023-03-14T16:52:11.658Z,10.93
2023-03-14T16:54:38.561Z,11.13
2023-03-14T16:59:53.722Z,8.47
2023-03-14T17:02:20.447Z,8.63
2023-03-14T17:04:47.332Z,8.40
2023-03-14T17:07:15.602Z,10.47
2023-03-14T17:09:43.036Z,7.70
2023-03-14T17:12:09.770Z,12.50
2023-03-14T17:14:36.527Z,7.67
2023-03-14T17:19:51.668Z,7.00
2023-03-14T17:25:03.482Z,8.67
2023-03-14T17:27:30.246Z,16.13
2023-03-14T17:29:57.316Z,7.07
2023-03-14T17:32:24.015Z,5.63
2023-03-14T17:34:51.180Z,6.53
2023-03-14T17:37:17.845Z,7.60
2023-03-14T17:39:44.624Z,7.03
2023-03-14T17:42:11.267Z,8.37
2023-03-14T17:44:38.467Z,9.63
2023-03-14T17:47:05.138Z,9.37
2023-03-14T17:49:32.198Z,7.83
2023-03-14T17:51:58.976Z,8.10
2023-03-14T17:54:26.907Z,7.50
2023-03-14T17:56:56.733Z,11.33
2023-03-14T17:59:24.320Z,8.83
2023-03-14T18:01:52.637Z,7.80
2023-03-14T18:04:20.550Z,11.20
2023-03-14T18:06:49.967Z,9.47
2023-03-14T18:09:17.014Z,8.03
2023-03-14T18:11:43.749Z,8.63
2023-03-14T18:14:16.827Z,22.17
2023-03-14T18:16:48.840Z,10.93
2023-03-14T18:19:16.364Z,10.43
2023-03-14T18:21:44.347Z,9.10
2023-03-14T18:24:11.298Z,7.90
2023-03-14T18:26:38.048Z,7.93
2023-03-14T18:29:04.892Z,11.20
2023-03-14T18:31:35.004Z,9.53
2023-03-14T18:34:01.961Z,11.00
2023-03-14T18:36:29.065Z,10.70
2023-03-14T18:39:01.292Z,10.00
2023-03-14T18:41:28.345Z,9.63
2023-03-14T18:43:55.149Z,9.67
2023-03-14T18:46:22.540Z,13.80
2023-03-14T18:48:57.470Z,16.23
2023-03-14T18:51:26.121Z,12.13
2023-03-14T18:53:56.529Z,17.27
2023-03-14T18:56:30.596Z,17.30
2023-03-14T18:58:58.718Z,15.13
2023-03-14T19:01:30.362Z,17.90
2023-03-14T19:06:43.380Z,15.50
2023-03-14T19:09:11.878Z,8.80
2023-03-14T19:11:38.694Z,4.60
2023-03-14T19:14:05.382Z,4.80
2023-03-14T19:16:32.919Z,8.47
2023-03-14T19:18:59.580Z,6.67
2023-03-14T19:21:27.319Z,4.80
2023-03-14T19:23:54.111Z,8.97
2023-03-14T19:26:22.004Z,5.73
2023-03-14T19:28:48.765Z,8.27
2023-03-14T19:31:16.741Z,4.57
2023-03-14T19:33:45.018Z,7.60
2023-03-14T19:36:18.730Z,3.37
2023-03-14T19:38:45.766Z,2.00
2023-03-14T19:41:12.492Z,1.83
2023-03-14T19:43:39.392Z,3.23
2023-03-14T19:46:06.074Z,2.90
2023-03-14T19:48:33.783Z,3.03
2023-03-14T19:51:00.567Z,3.43
2023-03-14T19:53:27.383Z,2.67
2023-03-14T19:55:56.272Z,2.87
2023-03-14T19:58:23.875Z,3.87
2023-03-14T20:00:51.533Z,5.33
2023-03-14T20:03:18.689Z,6.73
2023-03-14T20:05:45.774Z,6.40
2023-03-14T20:08:14.058Z,7.80
2023-03-14T20:10:40.810Z,4.37
2023-03-14T20:13:19.253Z,7.30
2023-03-14T20:15:47.985Z,4.40
2023-03-14T20:18:17.602Z,2.93
2023-03-14T20:20:44.693Z,4.53
2023-03-14T20:23:13.046Z,4.87
2023-03-14T20:25:39.971Z,5.70
2023-03-14T20:28:06.641Z,7.60
2023-03-14T20:30:33.377Z,3.37
2023-03-14T20:33:00.662Z,2.97
2023-03-14T20:35:28.315Z,1.90
2023-03-14T20:37:56.278Z,1.57
2023-03-14T20:40:24.172Z,2.63
2023-03-14T20:42:51.040Z,2.00
2023-03-14T20:45:17.883Z,2.23
2023-03-14T20:47:44.503Z,3.20
2023-03-14T20:50:11.973Z,0.70
2023-03-14T20:52:41.170Z,1.93
2023-03-14T20:55:08.102Z,4.07
2023-03-14T20:57:34.787Z,5.97
2023-03-14T21:00:01.672Z,2.37
2023-03-14T21:02:29.548Z,2.83
2023-03-14T21:04:57.344Z,3.13
2023-03-14T21:07:23.995Z,4.47
2023-03-14T21:09:50.858Z,2.77
2023-03-14T21:12:17.443Z,4.03
2023-03-14T21:14:44.169Z,4.70
2023-03-14T21:17:13.055Z,3.50
2023-03-14T21:19:41.091Z,2.63
2023-03-14T21:22:07.698Z,4.33
2023-03-14T21:24:34.848Z,5.53
2023-03-14T21:27:01.543Z,5.07
2023-03-14T21:29:31.890Z,5.23
2023-03-14T21:31:59.274Z,6.43
2023-03-14T21:34:27.694Z,4.10
2023-03-14T21:36:55.607Z,1.30
2023-03-14T21:39:22.373Z,3.17
2023-03-14T21:41:49.184Z,6.27
2023-03-14T21:44:17.401Z,3.33
2023-03-14T21:46:46.049Z,4.73
2023-03-14T21:49:15.866Z,3.50
2023-03-14T21:51:45.929Z,6.97
2023-03-14T21:54:16.096Z,5.27
2023-03-14T21:56:43.201Z,3.87
2023-03-14T21:59:10.272Z,3.07
2023-03-14T22:01:39.783Z,3.63
2023-03-14T22:04:06.934Z,2.47
2023-03-14T22:06:35.744Z,3.87
2023-03-14T22:09:03.211Z,3.17
2023-03-14T22:11:29.906Z,4.83
2023-03-14T22:13:56.783Z,4.87
2023-03-14T22:16:23.503Z,6.13
2023-03-14T22:18:50.120Z,7.10
2023-03-14T22:21:16.829Z,3.03
2023-03-14T22:23:43.534Z,5.30
2023-03-14T22:26:10.576Z,4.53
2023-03-14T22:28:37.223Z,3.73
2023-03-14T22:31:03.997Z,4.57
2023-03-14T22:33:31.412Z,9.03
2023-03-14T22:35:58.281Z,3.87
2023-03-14T22:38:25.252Z,4.67
2023-03-14T22:40:51.940Z,6.63
2023-03-14T22:43:18.770Z,5.80
2023-03-14T22:45:45.594Z,6.53
2023-03-14T22:48:12.267Z,4.40
2023-03-14T22:50:39.908Z,9.27
2023-03-14T22:53:06.563Z,8.43
2023-03-14T22:55:33.289Z,6.03
2023-03-14T22:58:00.573Z,7.23
2023-03-14T23:00:28.017Z,6.53
2023-03-14T23:02:54.775Z,4.97
2023-03-14T23:05:21.670Z,7.43
2023-03-14T23:07:50.562Z,2.97
2023-03-14T23:10:17.352Z,8.40
2023-03-14T23:12:47.060Z,6.30
2023-03-14T23:15:16.067Z,7.60
2023-03-14T23:17:43.289Z,7.00
2023-03-14T23:20:11.357Z,10.57
2023-03-14T23:22:38.021Z,3.43
2023-03-14T23:25:05.444Z,8.50
2023-03-14T23:27:32.098Z,6.80
2023-03-14T23:29:58.937Z,9.00
2023-03-14T23:32:25.539Z,9.20
2023-03-14T23:34:52.318Z,8.23
2023-03-14T23:37:18.943Z,7.30
2023-03-14T23:39:45.769Z,6.87
2023-03-14T23:42:12.627Z,7.83
2023-03-14T23:44:39.246Z,8.90
2023-03-14T23:47:05.878Z,5.83
2023-03-14T23:49:32.621Z,5.97
2023-03-14T23:51:59.267Z,4.23
2023-03-14T23:54:25.987Z,8.60
2023-03-14T23:56:52.615Z,8.50
2023-03-14T23:59:19.521Z,10.33
